sensor_id;sensor_type;location;lat;lon;timestamp;P1;durP1;ratioP1;P2;durP2;ratioP2
67602;SDS011;54417;47.454;18.918;2023-04-25T00:05:01;1.75;;;1.60;;
67602;SDS011;54417;47.454;18.918;2023-04-25T00:10:10;2.33;;;1.23;;
67602;SDS011;54417;47.454;18.918;2023-04-25T00:15:20;1.70;;;1.48;;
67602;SDS011;54417;47.454;18.918;2023-04-25T00:20:24;1.60;;;1.23;;
67602;SDS011;54417;47.454;18.918;2023-04-25T00:25:33;1.50;;;1.40;;
67602;SDS011;54417;47.454;18.918;2023-04-25T00:30:43;2.75;;;1.77;;
67602;SDS011;54417;47.454;18.918;2023-04-25T00:35:52;3.10;;;1.65;;
67602;SDS011;54417;47.454;18.918;2023-04-25T00:41:01;1.73;;;1.60;;
67602;SDS011;54417;47.454;18.918;2023-04-25T00:46:11;2.63;;;1.55;;
67602;SDS011;54417;47.454;18.918;2023-04-25T00:51:20;2.55;;;1.83;;
67602;SDS011;54417;47.454;18.918;2023-04-25T00:56:29;2.40;;;2.17;;
67602;SDS011;54417;47.454;18.918;2023-04-25T01:01:39;3.63;;;2.80;;
67602;SDS011;54417;47.454;18.918;2023-04-25T01:06:51;4.20;;;2.00;;
67602;SDS011;54417;47.454;18.918;2023-04-25T01:12:00;3.78;;;2.80;;
67602;SDS011;54417;47.454;18.918;2023-04-25T01:17:11;3.15;;;2.85;;
67602;SDS011;54417;47.454;18.918;2023-04-25T01:22:16;4.82;;;2.65;;
67602;SDS011;54417;47.454;18.918;2023-04-25T01:27:21;2.85;;;2.47;;
67602;SDS011;54417;47.454;18.918;2023-04-25T01:32:25;3.15;;;2.20;;
67602;SDS011;54417;47.454;18.918;2023-04-25T01:37:31;3.80;;;2.20;;
67602;SDS011;54417;47.454;18.918;2023-04-25T01:42:41;3.38;;;2.20;;
67602;SDS011;54417;47.454;18.918;2023-04-25T01:47:51;2.45;;;2.25;;
67602;SDS011;54417;47.454;18.918;2023-04-25T01:53:01;2.20;;;1.90;;
67602;SDS011;54417;47.454;18.918;2023-04-25T01:58:05;7.35;;;2.60;;
67602;SDS011;54417;47.454;18.918;2023-04-25T02:03:30;2.55;;;2.35;;
67602;SDS011;54417;47.454;18.918;2023-04-25T02:08:38;4.00;;;2.30;;
67602;SDS011;54417;47.454;18.918;2023-04-25T02:13:47;2.28;;;2.08;;
67602;SDS011;54417;47.454;18.918;2023-04-25T02:19:07;3.57;;;2.97;;
67602;SDS011;54417;47.454;18.918;2023-04-25T02:24:18;2.42;;;2.22;;
67602;SDS011;54417;47.454;18.918;2023-04-25T02:29:27;4.38;;;2.78;;
67602;SDS011;54417;47.454;18.918;2023-04-25T02:34:36;3.00;;;2.53;;
67602;SDS011;54417;47.454;18.918;2023-04-25T02:39:41;6.07;;;2.58;;
67602;SDS011;54417;47.454;18.918;2023-04-25T02:44:49;4.75;;;2.78;;
67602;SDS011;54417;47.454;18.918;2023-04-25T02:49:53;2.50;;;2.17;;
67602;SDS011;54417;47.454;18.918;2023-04-25T02:54:58;2.88;;;2.58;;
67602;SDS011;54417;47.454;18.918;2023-04-25T03:00:09;2.38;;;2.17;;
67602;SDS011;54417;47.454;18.918;2023-04-25T03:05:21;2.63;;;2.10;;
67602;SDS011;54417;47.454;18.918;2023-04-25T03:10:26;4.45;;;2.70;;
67602;SDS011;54417;47.454;18.918;2023-04-25T03:15:34;2.55;;;2.35;;
67602;SDS011;54417;47.454;18.918;2023-04-25T03:20:43;7.13;;;2.83;;
67602;SDS011;54417;47.454;18.918;2023-04-25T03:25:53;2.95;;;2.38;;
67602;SDS011;54417;47.454;18.918;2023-04-25T03:31:02;3.10;;;2.78;;
67602;SDS011;54417;47.454;18.918;2023-04-25T03:36:06;3.63;;;2.40;;
67602;SDS011;54417;47.454;18.918;2023-04-25T03:41:18;9.37;;;2.37;;
67602;SDS011;54417;47.454;18.918;2023-04-25T03:46:32;2.70;;;2.50;;
67602;SDS011;54417;47.454;18.918;2023-04-25T03:51:41;3.67;;;2.88;;
67602;SDS011;54417;47.454;18.918;2023-04-25T03:56:46;7.00;;;2.85;;
67602;SDS011;54417;47.454;18.918;2023-04-25T04:01:59;3.47;;;3.17;;
67602;SDS011;54417;47.454;18.918;2023-04-25T04:07:09;5.18;;;2.88;;
67602;SDS011;54417;47.454;18.918;2023-04-25T04:12:23;3.67;;;2.95;;
67602;SDS011;54417;47.454;18.918;2023-04-25T04:17:32;3.50;;;3.20;;
67602;SDS011;54417;47.454;18.918;2023-04-25T04:22:41;8.15;;;2.75;;
67602;SDS011;54417;47.454;18.918;2023-04-25T04:33:09;3.95;;;3.58;;
67602;SDS011;54417;47.454;18.918;2023-04-25T04:38:19;3.45;;;3.15;;
67602;SDS011;54417;47.454;18.918;2023-04-25T04:43:32;4.20;;;3.80;;
67602;SDS011;54417;47.454;18.918;2023-04-25T04:48:54;4.57;;;4.00;;
67602;SDS011;54417;47.454;18.918;2023-04-25T04:54:37;4.05;;;3.50;;
67602;SDS011;54417;47.454;18.918;2023-04-25T05:00:04;4.85;;;4.40;;
67602;SDS011;54417;47.454;18.918;2023-04-25T05:05:31;5.25;;;4.32;;
67602;SDS011;54417;47.454;18.918;2023-04-25T05:11:03;5.90;;;3.92;;
67602;SDS011;54417;47.454;18.918;2023-04-25T05:16:30;4.13;;;3.72;;
67602;SDS011;54417;47.454;18.918;2023-04-25T05:21:51;7.80;;;5.22;;
67602;SDS011;54417;47.454;18.918;2023-04-25T05:27:13;6.97;;;4.55;;
67602;SDS011;54417;47.454;18.918;2023-04-25T05:32:41;7.10;;;4.50;;
67602;SDS011;54417;47.454;18.918;2023-04-25T05:37:50;9.27;;;5.43;;
67602;SDS011;54417;47.454;18.918;2023-04-25T05:43:06;8.38;;;5.20;;
67602;SDS011;54417;47.454;18.918;2023-04-25T05:48:43;9.10;;;5.10;;
67602;SDS011;54417;47.454;18.918;2023-04-25T05:54:10;6.20;;;5.32;;
67602;SDS011;54417;47.454;18.918;2023-04-25T05:59:20;10.15;;;7.55;;
67602;SDS011;54417;47.454;18.918;2023-04-25T06:04:30;8.10;;;6.88;;
67602;SDS011;54417;47.454;18.918;2023-04-25T06:09:35;7.13;;;6.43;;
67602;SDS011;54417;47.454;18.918;2023-04-25T06:14:45;6.53;;;5.72;;
67602;SDS011;54417;47.454;18.918;2023-04-25T06:19:58;6.90;;;4.47;;
67602;SDS011;54417;47.454;18.918;2023-04-25T06:25:08;6.45;;;4.03;;
67602;SDS011;54417;47.454;18.918;2023-04-25T06:30:18;5.90;;;4.47;;
67602;SDS011;54417;47.454;18.918;2023-04-25T06:35:28;4.05;;;3.67;;
67602;SDS011;54417;47.454;18.918;2023-04-25T06:40:38;6.10;;;3.83;;
67602;SDS011;54417;47.454;18.918;2023-04-25T06:45:48;4.32;;;3.72;;
67602;SDS011;54417;47.454;18.918;2023-04-25T06:51:00;9.90;;;4.17;;
67602;SDS011;54417;47.454;18.918;2023-04-25T06:56:09;6.10;;;5.35;;
67602;SDS011;54417;47.454;18.918;2023-04-25T07:01:24;4.63;;;4.03;;
67602;SDS011;54417;47.454;18.918;2023-04-25T07:06:35;4.35;;;3.83;;
67602;SDS011;54417;47.454;18.918;2023-04-25T07:11:45;15.68;;;4.53;;
67602;SDS011;54417;47.454;18.918;2023-04-25T07:16:54;3.40;;;2.47;;
67602;SDS011;54417;47.454;18.918;2023-04-25T07:22:02;3.30;;;3.00;;
67602;SDS011;54417;47.454;18.918;2023-04-25T07:27:12;7.43;;;3.70;;
67602;SDS011;54417;47.454;18.918;2023-04-25T07:32:31;3.97;;;3.15;;
67602;SDS011;54417;47.454;18.918;2023-04-25T07:37:41;6.65;;;3.95;;
67602;SDS011;54417;47.454;18.918;2023-04-25T07:42:48;4.32;;;2.92;;
67602;SDS011;54417;47.454;18.918;2023-04-25T07:48:03;2.88;;;2.65;;
67602;SDS011;54417;47.454;18.918;2023-04-25T07:53:17;6.63;;;3.75;;
67602;SDS011;54417;47.454;18.918;2023-04-25T07:58:33;3.08;;;2.83;;
67602;SDS011;54417;47.454;18.918;2023-04-25T08:03:39;2.47;;;2.28;;
67602;SDS011;54417;47.454;18.918;2023-04-25T08:08:56;3.28;;;2.97;;
67602;SDS011;54417;47.454;18.918;2023-04-25T08:14:08;5.05;;;2.88;;
67602;SDS011;54417;47.454;18.918;2023-04-25T08:19:13;4.43;;;3.33;;
67602;SDS011;54417;47.454;18.918;2023-04-25T08:24:23;4.10;;;3.15;;
67602;SDS011;54417;47.454;18.918;2023-04-25T08:29:28;6.95;;;3.00;;
67602;SDS011;54417;47.454;18.918;2023-04-25T08:34:37;3.75;;;2.90;;
67602;SDS011;54417;47.454;18.918;2023-04-25T08:39:50;3.88;;;3.38;;
67602;SDS011;54417;47.454;18.918;2023-04-25T08:50:16;12.25;;;3.85;;
67602;SDS011;54417;47.454;18.918;2023-04-25T08:55:28;3.05;;;2.63;;
67602;SDS011;54417;47.454;18.918;2023-04-25T09:00:34;3.45;;;2.85;;
67602;SDS011;54417;47.454;18.918;2023-04-25T09:05:43;5.22;;;3.45;;
67602;SDS011;54417;47.454;18.918;2023-04-25T09:10:56;4.93;;;3.80;;
67602;SDS011;54417;47.454;18.918;2023-04-25T09:16:05;3.03;;;2.50;;
67602;SDS011;54417;47.454;18.918;2023-04-25T09:21:32;3.42;;;3.13;;
67602;SDS011;54417;47.454;18.918;2023-04-25T09:26:45;8.27;;;2.83;;
67602;SDS011;54417;47.454;18.918;2023-04-25T09:31:57;4.68;;;2.72;;
67602;SDS011;54417;47.454;18.918;2023-04-25T09:37:18;3.23;;;2.63;;
67602;SDS011;54417;47.454;18.918;2023-04-25T09:42:48;3.03;;;2.70;;
67602;SDS011;54417;47.454;18.918;2023-04-25T09:47:59;3.08;;;2.60;;
67602;SDS011;54417;47.454;18.918;2023-04-25T09:53:16;2.28;;;2.08;;
67602;SDS011;54417;47.454;18.918;2023-04-25T09:58:39;2.45;;;1.70;;
67602;SDS011;54417;47.454;18.918;2023-04-25T10:03:49;2.17;;;1.77;;
67602;SDS011;54417;47.454;18.918;2023-04-25T10:09:21;1.90;;;1.80;;
67602;SDS011;54417;47.454;18.918;2023-04-25T10:14:30;1.52;;;1.45;;
67602;SDS011;54417;47.454;18.918;2023-04-25T10:19:34;1.42;;;1.33;;
67602;SDS011;54417;47.454;18.918;2023-04-25T10:24:43;1.98;;;1.30;;
67602;SDS011;54417;47.454;18.918;2023-04-25T10:30:01;8.88;;;1.48;;
67602;SDS011;54417;47.454;18.918;2023-04-25T10:35:12;1.48;;;1.38;;
67602;SDS011;54417;47.454;18.918;2023-04-25T10:40:21;0.90;;;0.90;;
67602;SDS011;54417;47.454;18.918;2023-04-25T10:45:27;0.98;;;0.98;;
67602;SDS011;54417;47.454;18.918;2023-04-25T10:50:37;0.70;;;0.70;;
67602;SDS011;54417;47.454;18.918;2023-04-25T10:55:49;2.63;;;0.90;;
67602;SDS011;54417;47.454;18.918;2023-04-25T11:00:55;0.70;;;0.70;;
67602;SDS011;54417;47.454;18.918;2023-04-25T11:06:04;0.93;;;0.75;;
67602;SDS011;54417;47.454;18.918;2023-04-25T11:11:10;0.80;;;0.80;;
67602;SDS011;54417;47.454;18.918;2023-04-25T11:16:16;0.70;;;0.70;;
67602;SDS011;54417;47.454;18.918;2023-04-25T11:21:29;0.60;;;0.60;;
67602;SDS011;54417;47.454;18.918;2023-04-25T11:26:33;1.70;;;0.75;;
67602;SDS011;54417;47.454;18.918;2023-04-25T11:31:44;1.38;;;0.70;;
67602;SDS011;54417;47.454;18.918;2023-04-25T11:36:53;0.50;;;0.50;;
67602;SDS011;54417;47.454;18.918;2023-04-25T11:42:03;0.88;;;0.88;;
67602;SDS011;54417;47.454;18.918;2023-04-25T11:47:31;0.88;;;0.88;;
67602;SDS011;54417;47.454;18.918;2023-04-25T11:52:36;0.93;;;0.90;;
67602;SDS011;54417;47.454;18.918;2023-04-25T11:57:41;0.82;;;0.82;;
67602;SDS011;54417;47.454;18.918;2023-04-25T12:02:53;1.87;;;1.30;;
67602;SDS011;54417;47.454;18.918;2023-04-25T12:08:10;1.52;;;0.85;;
67602;SDS011;54417;47.454;18.918;2023-04-25T12:13:21;0.90;;;0.90;;
67602;SDS011;54417;47.454;18.918;2023-04-25T12:18:28;1.33;;;1.00;;
67602;SDS011;54417;47.454;18.918;2023-04-25T12:23:32;0.90;;;0.90;;
67602;SDS011;54417;47.454;18.918;2023-04-25T12:28:36;6.35;;;1.17;;
67602;SDS011;54417;47.454;18.918;2023-04-25T12:33:46;1.23;;;1.13;;
67602;SDS011;54417;47.454;18.918;2023-04-25T12:38:49;1.00;;;0.95;;
67602;SDS011;54417;47.454;18.918;2023-04-25T12:43:54;1.08;;;1.00;;
67602;SDS011;54417;47.454;18.918;2023-04-25T12:48:59;0.90;;;0.90;;
67602;SDS011;54417;47.454;18.918;2023-04-25T12:54:23;2.03;;;0.95;;
67602;SDS011;54417;47.454;18.918;2023-04-25T12:59:32;1.67;;;0.98;;
67602;SDS011;54417;47.454;18.918;2023-04-25T13:04:43;1.67;;;1.08;;
67602;SDS011;54417;47.454;18.918;2023-04-25T13:09:52;1.65;;;1.10;;
67602;SDS011;54417;47.454;18.918;2023-04-25T13:15:01;1.20;;;1.13;;
67602;SDS011;54417;47.454;18.918;2023-04-25T13:20:07;1.55;;;1.45;;
67602;SDS011;54417;47.454;18.918;2023-04-25T13:25:17;1.27;;;1.17;;
67602;SDS011;54417;47.454;18.918;2023-04-25T13:30:20;1.38;;;1.10;;
67602;SDS011;54417;47.454;18.918;2023-04-25T13:35:31;1.08;;;1.00;;
67602;SDS011;54417;47.454;18.918;2023-04-25T13:40:35;1.25;;;1.20;;
67602;SDS011;54417;47.454;18.918;2023-04-25T13:45:39;1.58;;;1.00;;
67602;SDS011;54417;47.454;18.918;2023-04-25T13:50:44;1.40;;;1.30;;
67602;SDS011;54417;47.454;18.918;2023-04-25T13:55:48;1.77;;;1.67;;
67602;SDS011;54417;47.454;18.918;2023-04-25T14:00:52;1.17;;;1.08;;
67602;SDS011;54417;47.454;18.918;2023-04-25T14:06:02;1.58;;;1.27;;
67602;SDS011;54417;47.454;18.918;2023-04-25T14:11:12;1.42;;;1.30;;
67602;SDS011;54417;47.454;18.918;2023-04-25T14:16:21;4.22;;;1.40;;
67602;SDS011;54417;47.454;18.918;2023-04-25T14:21:26;2.08;;;1.50;;
67602;SDS011;54417;47.454;18.918;2023-04-25T14:26:35;3.45;;;1.65;;
67602;SDS011;54417;47.454;18.918;2023-04-25T14:31:44;1.40;;;1.30;;
67602;SDS011;54417;47.454;18.918;2023-04-25T14:36:54;1.80;;;1.30;;
67602;SDS011;54417;47.454;18.918;2023-04-25T14:42:03;3.78;;;1.48;;
67602;SDS011;54417;47.454;18.918;2023-04-25T14:47:07;2.00;;;1.38;;
67602;SDS011;54417;47.454;18.918;2023-04-25T14:52:18;2.22;;;1.40;;
67602;SDS011;54417;47.454;18.918;2023-04-25T14:57:27;1.52;;;1.33;;
67602;SDS011;54417;47.454;18.918;2023-04-25T15:02:30;2.25;;;1.55;;
67602;SDS011;54417;47.454;18.918;2023-04-25T15:07:41;1.58;;;1.48;;
67602;SDS011;54417;47.454;18.918;2023-04-25T15:12:45;1.65;;;1.55;;
67602;SDS011;54417;47.454;18.918;2023-04-25T15:17:54;1.67;;;1.33;;
67602;SDS011;54417;47.454;18.918;2023-04-25T15:23:07;1.20;;;1.10;;
67602;SDS011;54417;47.454;18.918;2023-04-25T15:28:15;3.55;;;1.50;;
67602;SDS011;54417;47.454;18.918;2023-04-25T15:33:24;1.30;;;1.20;;
67602;SDS011;54417;47.454;18.918;2023-04-25T15:38:30;1.23;;;1.15;;
67602;SDS011;54417;47.454;18.918;2023-04-25T15:43:38;3.10;;;2.77;;
67602;SDS011;54417;47.454;18.918;2023-04-25T15:48:42;2.60;;;2.40;;
67602;SDS011;54417;47.454;18.918;2023-04-25T15:53:53;2.25;;;2.00;;
67602;SDS011;54417;47.454;18.918;2023-04-25T15:59:02;3.03;;;2.38;;
67602;SDS011;54417;47.454;18.918;2023-04-25T16:04:11;1.90;;;1.60;;
67602;SDS011;54417;47.454;18.918;2023-04-25T16:09:21;3.50;;;1.50;;
67602;SDS011;54417;47.454;18.918;2023-04-25T16:14:30;5.67;;;1.60;;
67602;SDS011;54417;47.454;18.918;2023-04-25T16:19:35;1.85;;;1.67;;
67602;SDS011;54417;47.454;18.918;2023-04-25T16:24:45;2.13;;;1.90;;
67602;SDS011;54417;47.454;18.918;2023-04-25T16:29:54;2.47;;;2.23;;
67602;SDS011;54417;47.454;18.918;2023-04-25T16:35:03;2.67;;;2.33;;
67602;SDS011;54417;47.454;18.918;2023-04-25T16:40:13;2.67;;;1.95;;
67602;SDS011;54417;47.454;18.918;2023-04-25T16:45:22;3.00;;;2.53;;
67602;SDS011;54417;47.454;18.918;2023-04-25T16:50:27;4.55;;;2.50;;
67602;SDS011;54417;47.454;18.918;2023-04-25T16:55:32;3.25;;;2.30;;
67602;SDS011;54417;47.454;18.918;2023-04-25T17:00:36;3.63;;;2.00;;
67602;SDS011;54417;47.454;18.918;2023-04-25T17:05:47;3.80;;;2.05;;
67602;SDS011;54417;47.454;18.918;2023-04-25T17:10:59;2.10;;;1.83;;
67602;SDS011;54417;47.454;18.918;2023-04-25T17:16:08;2.58;;;2.20;;
67602;SDS011;54417;47.454;18.918;2023-04-25T17:21:12;2.58;;;2.20;;
67602;SDS011;54417;47.454;18.918;2023-04-25T17:26:18;5.65;;;2.15;;
67602;SDS011;54417;47.454;18.918;2023-04-25T17:31:27;4.57;;;2.67;;
67602;SDS011;54417;47.454;18.918;2023-04-25T17:36:36;4.30;;;2.40;;
67602;SDS011;54417;47.454;18.918;2023-04-25T17:41:46;5.30;;;3.60;;
67602;SDS011;54417;47.454;18.918;2023-04-25T17:46:50;3.05;;;2.70;;
67602;SDS011;54417;47.454;18.918;2023-04-25T17:51:57;3.67;;;2.92;;
67602;SDS011;54417;47.454;18.918;2023-04-25T17:57:02;5.07;;;2.72;;
67602;SDS011;54417;47.454;18.918;2023-04-25T18:02:11;5.53;;;3.47;;
67602;SDS011;54417;47.454;18.918;2023-04-25T18:07:20;3.35;;;2.90;;
67602;SDS011;54417;47.454;18.918;2023-04-25T18:12:31;5.32;;;3.40;;
67602;SDS011;54417;47.454;18.918;2023-04-25T18:17:40;3.75;;;3.35;;
67602;SDS011;54417;47.454;18.918;2023-04-25T18:22:49;3.78;;;3.42;;
67602;SDS011;54417;47.454;18.918;2023-04-25T18:27:59;5.57;;;3.35;;
67602;SDS011;54417;47.454;18.918;2023-04-25T18:33:08;4.82;;;3.47;;
67602;SDS011;54417;47.454;18.918;2023-04-25T18:38:12;5.70;;;2.65;;
67602;SDS011;54417;47.454;18.918;2023-04-25T18:43:28;4.65;;;3.10;;
67602;SDS011;54417;47.454;18.918;2023-04-25T18:48:32;5.72;;;2.70;;
67602;SDS011;54417;47.454;18.918;2023-04-25T18:53:36;2.97;;;2.65;;
67602;SDS011;54417;47.454;18.918;2023-04-25T18:58:46;5.22;;;3.17;;
67602;SDS011;54417;47.454;18.918;2023-04-25T19:03:57;6.22;;;3.70;;
67602;SDS011;54417;47.454;18.918;2023-04-25T19:09:10;3.90;;;2.72;;
67602;SDS011;54417;47.454;18.918;2023-04-25T19:14:15;5.25;;;3.35;;
67602;SDS011;54417;47.454;18.918;2023-04-25T19:19:24;4.32;;;3.20;;
67602;SDS011;54417;47.454;18.918;2023-04-25T19:24:33;4.60;;;3.38;;
67602;SDS011;54417;47.454;18.918;2023-04-25T19:29:43;4.90;;;3.10;;
67602;SDS011;54417;47.454;18.918;2023-04-25T19:34:54;3.60;;;2.85;;
67602;SDS011;54417;47.454;18.918;2023-04-25T19:39:58;6.57;;;2.78;;
67602;SDS011;54417;47.454;18.918;2023-04-25T19:45:03;6.57;;;2.67;;
67602;SDS011;54417;47.454;18.918;2023-04-25T19:50:13;3.78;;;3.15;;
67602;SDS011;54417;47.454;18.918;2023-04-25T19:55:22;3.13;;;2.78;;
67602;SDS011;54417;47.454;18.918;2023-04-25T20:00:32;4.13;;;3.08;;
67602;SDS011;54417;47.454;18.918;2023-04-25T20:05:36;3.33;;;2.92;;
67602;SDS011;54417;47.454;18.918;2023-04-25T20:10:45;5.22;;;3.03;;
67602;SDS011;54417;47.454;18.918;2023-04-25T20:15:56;5.55;;;3.15;;
67602;SDS011;54417;47.454;18.918;2023-04-25T20:21:08;4.72;;;3.28;;
67602;SDS011;54417;47.454;18.918;2023-04-25T20:26:17;4.20;;;3.28;;
67602;SDS011;54417;47.454;18.918;2023-04-25T20:36:40;3.67;;;2.78;;
67602;SDS011;54417;47.454;18.918;2023-04-25T20:41:44;3.60;;;3.30;;
67602;SDS011;54417;47.454;18.918;2023-04-25T20:46:54;4.00;;;2.95;;
67602;SDS011;54417;47.454;18.918;2023-04-25T20:51:58;4.38;;;3.58;;
67602;SDS011;54417;47.454;18.918;2023-04-25T20:57:03;4.55;;;3.05;;
67602;SDS011;54417;47.454;18.918;2023-04-25T21:02:14;4.68;;;3.55;;
67602;SDS011;54417;47.454;18.918;2023-04-25T21:07:23;3.20;;;2.90;;
67602;SDS011;54417;47.454;18.918;2023-04-25T21:12:32;5.05;;;3.30;;
67602;SDS011;54417;47.454;18.918;2023-04-25T21:17:43;3.97;;;3.22;;
67602;SDS011;54417;47.454;18.918;2023-04-25T21:28:05;5.53;;;3.90;;
67602;SDS011;54417;47.454;18.918;2023-04-25T21:33:10;5.90;;;3.33;;
67602;SDS011;54417;47.454;18.918;2023-04-25T21:38:15;4.55;;;3.30;;
67602;SDS011;54417;47.454;18.918;2023-04-25T21:43:19;4.40;;;2.90;;
67602;SDS011;54417;47.454;18.918;2023-04-25T21:48:30;4.50;;;3.17;;
67602;SDS011;54417;47.454;18.918;2023-04-25T21:53:41;4.63;;;3.88;;
67602;SDS011;54417;47.454;18.918;2023-04-25T21:58:50;4.72;;;3.30;;
67602;SDS011;54417;47.454;18.918;2023-04-25T22:03:55;6.38;;;3.50;;
67602;SDS011;54417;47.454;18.918;2023-04-25T22:09:04;4.40;;;3.63;;
67602;SDS011;54417;47.454;18.918;2023-04-25T22:14:08;5.43;;;4.30;;
67602;SDS011;54417;47.454;18.918;2023-04-25T22:19:19;8.52;;;4.32;;
67602;SDS011;54417;47.454;18.918;2023-04-25T22:24:27;4.63;;;3.72;;
67602;SDS011;54417;47.454;18.918;2023-04-25T22:29:37;4.35;;;3.88;;
67602;SDS011;54417;47.454;18.918;2023-04-25T22:34:42;4.50;;;4.00;;
67602;SDS011;54417;47.454;18.918;2023-04-25T22:39:51;5.13;;;4.38;;
67602;SDS011;54417;47.454;18.918;2023-04-25T22:45:00;5.13;;;4.35;;
67602;SDS011;54417;47.454;18.918;2023-04-25T22:50:10;5.40;;;4.65;;
67602;SDS011;54417;47.454;18.918;2023-04-25T22:55:23;5.50;;;4.38;;
67602;SDS011;54417;47.454;18.918;2023-04-25T23:00:27;6.88;;;5.00;;
67602;SDS011;54417;47.454;18.918;2023-04-25T23:05:38;8.48;;;5.35;;
67602;SDS011;54417;47.454;18.918;2023-04-25T23:10:41;5.00;;;4.18;;
67602;SDS011;54417;47.454;18.918;2023-04-25T23:15:50;6.00;;;4.95;;
67602;SDS011;54417;47.454;18.918;2023-04-25T23:21:00;6.20;;;5.05;;
67602;SDS011;54417;47.454;18.918;2023-04-25T23:26:05;7.18;;;5.00;;
67602;SDS011;54417;47.454;18.918;2023-04-25T23:31:14;6.38;;;5.22;;
67602;SDS011;54417;47.454;18.918;2023-04-25T23:36:25;6.53;;;5.32;;
67602;SDS011;54417;47.454;18.918;2023-04-25T23:41:29;13.15;;;5.50;;
67602;SDS011;54417;47.454;18.918;2023-04-25T23:46:38;8.77;;;5.90;;
67602;SDS011;54417;47.454;18.918;2023-04-25T23:51:44;7.93;;;6.50;;
67602;SDS011;54417;47.454;18.918;2023-04-25T23:56:48;8.73;;;5.38;;
